createdAt,value
2023-01-25T00:00:19.705Z,61.54
2023-01-25T00:03:21.375Z,61.57
2023-01-25T00:06:23.065Z,61.63
2023-01-25T00:09:27.640Z,61.64
2023-01-25T00:12:29.129Z,61.85
2023-01-25T00:15:30.916Z,61.76
2023-01-25T00:18:32.393Z,61.81
2023-01-25T00:21:34.849Z,61.90
2023-01-25T00:24:36.383Z,61.89
2023-01-25T00:27:38.023Z,61.92
2023-01-25T00:30:39.537Z,61.95
2023-01-25T00:33:50.826Z,61.89
2023-01-25T00:37:02.351Z,61.82
2023-01-25T00:40:05.129Z,61.71
2023-01-25T00:43:06.628Z,61.74
2023-01-25T00:46:09.294Z,61.77
2023-01-25T00:49:26.577Z,61.61
2023-01-25T00:52:28.635Z,61.61
2023-01-25T00:55:30.123Z,61.54
2023-01-25T00:58:31.729Z,61.71
2023-01-25T01:01:34.825Z,61.65
2023-01-25T01:04:36.440Z,61.65
2023-01-25T01:07:38.481Z,61.80
2023-01-25T01:10:40.393Z,61.67
2023-01-25T01:13:41.971Z,61.89
2023-01-25T01:16:43.551Z,61.80
2023-01-25T01:19:45.082Z,61.60
2023-01-25T01:22:46.557Z,61.75
2023-01-25T01:25:48.096Z,61.78
2023-01-25T01:28:49.687Z,61.76
2023-01-25T01:31:53.557Z,61.85
2023-01-25T01:34:58.621Z,61.59
2023-01-25T01:38:00.150Z,61.62
2023-01-25T01:41:01.843Z,61.59
2023-01-25T01:44:04.635Z,61.46
2023-01-25T01:47:15.149Z,61.59
2023-01-25T01:50:21.048Z,61.64
2023-01-25T01:53:25.032Z,61.67
2023-01-25T01:56:32.644Z,61.68
2023-01-25T01:59:50.998Z,61.68
2023-01-25T02:02:54.358Z,61.77
2023-01-25T02:06:47.032Z,61.73
2023-01-25T02:09:51.319Z,61.79
2023-01-25T02:12:55.521Z,61.74
2023-01-25T02:15:58.587Z,61.74
2023-01-25T02:19:02.365Z,61.73
2023-01-25T02:22:10.117Z,61.87
2023-01-25T02:25:14.757Z,61.61
2023-01-25T02:28:43.699Z,61.60
2023-01-25T02:31:47.468Z,61.54
2023-01-25T02:34:49.080Z,61.55
2023-01-25T02:37:51.827Z,61.70
2023-01-25T02:41:06.919Z,61.58
2023-01-25T02:44:12.701Z,61.78
2023-01-25T02:47:15.918Z,61.89
2023-01-25T02:50:17.681Z,61.82
2023-01-25T02:53:19.251Z,61.89
2023-01-25T02:56:21.610Z,61.99
2023-01-25T02:59:23.688Z,61.87
2023-01-25T03:02:28.782Z,62.10
2023-01-25T03:05:30.284Z,61.87
2023-01-25T03:08:33.909Z,61.90
2023-01-25T03:11:36.122Z,61.82
2023-01-25T03:14:37.864Z,61.98
2023-01-25T03:17:39.463Z,61.65
2023-01-25T03:20:41.197Z,61.72
2023-01-25T03:23:43.927Z,61.86
2023-01-25T03:27:06.562Z,61.62
2023-01-25T03:30:13.712Z,61.83
2023-01-25T03:33:15.224Z,61.95
2023-01-25T03:36:16.860Z,62.01
2023-01-25T03:39:18.431Z,62.10
2023-01-25T03:42:21.365Z,62.11
2023-01-25T03:45:26.985Z,62.20
2023-01-25T03:48:29.661Z,62.24
2023-01-25T03:51:31.362Z,62.25
2023-01-25T03:54:33.139Z,62.26
2023-01-25T03:57:34.838Z,62.18
2023-01-25T04:00:39.427Z,62.09
2023-01-25T04:03:41.058Z,62.21
2023-01-25T04:06:43.703Z,62.38
2023-01-25T04:09:45.280Z,62.52
2023-01-25T04:12:47.550Z,62.44
2023-01-25T04:15:49.899Z,62.64
2023-01-25T04:19:04.482Z,62.77
2023-01-25T04:22:08.879Z,62.65
2023-01-25T04:25:12.575Z,62.77
2023-01-25T04:28:22.067Z,62.66
2023-01-25T04:31:23.803Z,62.76
2023-01-25T04:34:25.591Z,62.82
2023-01-25T04:37:27.178Z,62.63
2023-01-25T04:40:32.548Z,62.79
2023-01-25T04:43:34.175Z,62.81
2023-01-25T04:46:40.785Z,62.90
2023-01-25T04:49:42.292Z,62.85
2023-01-25T04:52:44.727Z,62.73
2023-01-25T04:55:47.852Z,62.55
2023-01-25T04:58:50.197Z,62.39
2023-01-25T05:01:51.736Z,62.09
2023-01-25T05:04:53.262Z,62.09
2023-01-25T05:07:56.031Z,61.66
2023-01-25T05:10:57.697Z,61.92
2023-01-25T05:14:17.624Z,61.65
2023-01-25T05:17:20.786Z,61.77
2023-01-25T05:20:22.555Z,61.63
2023-01-25T05:23:24.275Z,61.55
2023-01-25T05:26:46.255Z,61.47
2023-01-25T05:29:48.115Z,61.26
2023-01-25T05:32:50.533Z,61.54
2023-01-25T05:35:53.695Z,61.19
2023-01-25T05:38:56.053Z,61.22
2023-01-25T05:41:57.726Z,61.31
2023-01-25T05:44:59.243Z,61.06
2023-01-25T05:48:00.917Z,61.28
2023-01-25T05:51:02.417Z,61.26
2023-01-25T05:54:06.979Z,61.47
2023-01-25T05:57:09.108Z,61.63
2023-01-25T06:00:11.509Z,61.68
2023-01-25T06:03:16.092Z,61.74
2023-01-25T06:06:18.731Z,61.78
2023-01-25T06:09:20.888Z,61.73
2023-01-25T06:12:22.512Z,61.63
2023-01-25T06:15:25.177Z,61.58
2023-01-25T06:18:31.520Z,61.74
2023-01-25T06:21:53.424Z,61.57
2023-01-25T06:24:54.919Z,61.59
2023-01-25T06:27:56.427Z,61.78
2023-01-25T06:31:04.185Z,61.40
2023-01-25T06:34:06.367Z,61.34
2023-01-25T06:37:08.112Z,61.13
2023-01-25T06:40:10.279Z,61.33
2023-01-25T06:43:12.020Z,61.29
2023-01-25T06:46:13.879Z,61.30
2023-01-25T06:49:15.406Z,61.25
2023-01-25T06:52:16.940Z,61.13
2023-01-25T06:55:18.453Z,61.07
2023-01-25T06:58:19.993Z,60.99
2023-01-25T07:01:26.905Z,60.95
2023-01-25T07:04:28.727Z,60.95
2023-01-25T07:07:30.570Z,60.82
2023-01-25T07:10:33.864Z,60.89
2023-01-25T07:13:35.830Z,60.86
2023-01-25T07:16:38.404Z,60.91
2023-01-25T07:19:39.865Z,60.68
2023-01-25T07:22:41.314Z,60.63
2023-01-25T07:25:50.508Z,60.87
2023-01-25T07:28:52.732Z,60.92
2023-01-25T07:31:54.240Z,60.92
2023-01-25T07:34:55.744Z,61.15
2023-01-25T07:37:57.267Z,61.23
2023-01-25T07:40:58.857Z,60.90
2023-01-25T07:44:00.643Z,60.95
2023-01-25T07:47:08.619Z,61.14
2023-01-25T07:50:10.887Z,60.79
2023-01-25T07:53:16.810Z,60.84
2023-01-25T07:56:19.399Z,60.81
2023-01-25T07:59:20.882Z,60.74
2023-01-25T08:02:22.443Z,60.71
2023-01-25T08:05:25.339Z,60.73
2023-01-25T08:08:27.025Z,60.72
2023-01-25T08:11:30.784Z,60.69
2023-01-25T08:14:32.902Z,60.71
2023-01-25T08:17:34.450Z,60.91
2023-01-25T08:20:37.617Z,60.71
2023-01-25T08:23:39.135Z,60.81
2023-01-25T08:26:40.659Z,60.76
2023-01-25T08:29:42.177Z,60.68
2023-01-25T08:32:43.673Z,60.77
2023-01-25T08:35:55.723Z,60.61
2023-01-25T08:38:59.950Z,60.56
2023-01-25T08:42:01.465Z,60.63
2023-01-25T08:45:03.093Z,60.61
2023-01-25T08:48:04.981Z,60.46
2023-01-25T08:51:12.856Z,60.45
2023-01-25T08:54:14.380Z,60.50
2023-01-25T08:57:15.962Z,60.47
2023-01-25T09:00:18.077Z,60.93
2023-01-25T09:03:19.548Z,60.93
2023-01-25T09:06:21.555Z,60.93
2023-01-25T09:09:24.869Z,60.86
2023-01-25T09:12:26.462Z,60.89
2023-01-25T09:15:28.351Z,60.93
2023-01-25T09:18:31.272Z,60.99
2023-01-25T09:21:33.534Z,61.04
2023-01-25T09:24:37.277Z,60.92
2023-01-25T09:27:38.975Z,60.95
2023-01-25T09:30:48.527Z,60.87
2023-01-25T09:34:01.039Z,61.01
2023-01-25T09:37:02.516Z,61.11
2023-01-25T09:40:04.904Z,61.06
2023-01-25T09:43:20.102Z,61.01
2023-01-25T09:46:36.969Z,61.19
2023-01-25T09:50:13.180Z,61.10
2023-01-25T09:53:39.255Z,61.08
2023-01-25T09:56:40.934Z,61.26
2023-01-25T09:59:45.322Z,61.37
2023-01-25T10:02:57.792Z,61.39
2023-01-25T10:06:02.047Z,61.25
2023-01-25T10:09:21.797Z,61.46
2023-01-25T10:12:25.677Z,61.57
2023-01-25T10:15:38.363Z,61.58
2023-01-25T10:19:07.502Z,61.95
2023-01-25T10:22:23.511Z,62.20
2023-01-25T10:25:34.919Z,62.31
2023-01-25T10:28:44.036Z,62.57
2023-01-25T10:31:50.444Z,62.69
2023-01-25T10:35:08.443Z,62.63
2023-01-25T10:38:27.108Z,62.65
2023-01-25T10:41:40.692Z,62.74
2023-01-25T10:44:42.327Z,62.88
2023-01-25T10:47:48.306Z,62.85
2023-01-25T10:50:52.556Z,62.94
2023-01-25T10:53:59.828Z,63.02
2023-01-25T10:57:01.767Z,62.88
2023-01-25T11:00:10.529Z,62.93
2023-01-25T11:03:22.063Z,62.83
2023-01-25T11:06:38.775Z,62.86
2023-01-25T11:09:40.306Z,62.77
2023-01-25T11:12:41.830Z,62.85
2023-01-25T11:15:46.237Z,62.80
2023-01-25T11:18:54.262Z,62.80
2023-01-25T11:21:58.506Z,62.85
2023-01-25T11:25:28.648Z,62.85
2023-01-25T11:28:30.272Z,62.91
2023-01-25T11:31:31.852Z,62.77
2023-01-25T11:34:33.381Z,62.76
2023-01-25T11:38:02.826Z,62.65
2023-01-25T11:41:21.821Z,62.65
2023-01-25T11:44:42.271Z,62.72
2023-01-25T11:48:25.283Z,59.16
2023-01-25T11:52:03.651Z,53.04
2023-01-25T11:55:14.286Z,50.57
2023-01-25T11:58:34.518Z,51.34
2023-01-25T12:01:49.777Z,50.76
2023-01-25T12:05:21.160Z,50.16
2023-01-25T12:08:49.177Z,50.27
2023-01-25T12:12:18.529Z,50.14
2023-01-25T12:15:42.398Z,52.00
2023-01-25T12:19:05.081Z,54.04
2023-01-25T12:22:28.369Z,54.59
2023-01-25T12:25:49.043Z,54.93
2023-01-25T12:28:53.528Z,54.98
2023-01-25T12:32:12.704Z,55.02
2023-01-25T12:35:28.117Z,55.31
2023-01-25T12:38:38.564Z,55.47
2023-01-25T12:41:57.144Z,55.77
2023-01-25T12:45:15.649Z,55.96
2023-01-25T12:48:22.862Z,56.09
2023-01-25T12:51:28.809Z,56.41
2023-01-25T12:54:36.159Z,56.44
2023-01-25T12:57:59.027Z,56.49
2023-01-25T13:01:19.432Z,56.60
2023-01-25T13:05:02.719Z,56.71
2023-01-25T13:08:31.082Z,56.79
2023-01-25T13:11:40.827Z,56.97
2023-01-25T13:14:42.434Z,57.09
2023-01-25T13:17:44.012Z,57.18
2023-01-25T13:20:49.243Z,57.24
2023-01-25T13:24:11.137Z,57.35
2023-01-25T13:27:27.724Z,57.53
2023-01-25T13:30:34.537Z,57.42
2023-01-25T13:33:37.019Z,57.62
2023-01-25T13:36:41.555Z,57.47
2023-01-25T13:39:45.832Z,57.43
2023-01-25T13:43:00.290Z,57.45
2023-01-25T13:46:05.899Z,57.50
2023-01-25T13:49:21.202Z,57.61
2023-01-25T13:52:25.206Z,57.69
2023-01-25T13:55:27.880Z,57.83
2023-01-25T13:58:36.313Z,57.90
2023-01-25T14:01:37.930Z,57.88
2023-01-25T14:04:39.569Z,58.26
2023-01-25T14:07:45.382Z,58.47
2023-01-25T14:10:47.468Z,58.36
2023-01-25T14:14:18.120Z,58.50
2023-01-25T14:17:23.142Z,58.67
2023-01-25T14:20:24.909Z,58.69
2023-01-25T14:23:29.043Z,58.45
2023-01-25T14:26:32.081Z,58.67
2023-01-25T14:29:40.311Z,58.54
2023-01-25T14:32:41.978Z,58.52
2023-01-25T14:36:11.580Z,58.57
2023-01-25T14:39:21.377Z,58.58
2023-01-25T14:42:22.948Z,58.56
2023-01-25T14:45:26.857Z,58.61
2023-01-25T14:48:35.206Z,58.65
2023-01-25T14:51:43.399Z,58.74
2023-01-25T14:54:50.286Z,58.62
2023-01-25T14:57:52.046Z,58.63
2023-01-25T15:01:00.557Z,58.68
2023-01-25T15:04:02.696Z,58.58
2023-01-25T15:07:16.815Z,58.65
2023-01-25T15:10:29.663Z,58.48
2023-01-25T15:13:31.180Z,58.16
2023-01-25T15:16:34.278Z,58.28
2023-01-25T15:19:35.921Z,58.15
2023-01-25T15:22:37.448Z,58.12
2023-01-25T15:25:52.521Z,57.89
2023-01-25T15:28:56.902Z,53.08
2023-01-25T15:31:58.538Z,49.30
2023-01-25T15:35:00.045Z,47.88
2023-01-25T15:38:01.580Z,47.20
2023-01-25T15:41:03.114Z,48.22
2023-01-25T15:44:04.718Z,51.19
2023-01-25T15:47:06.235Z,52.27
2023-01-25T15:50:17.625Z,53.04
2023-01-25T15:53:19.072Z,53.22
2023-01-25T15:56:24.660Z,53.58
2023-01-25T15:59:27.083Z,53.91
2023-01-25T16:02:28.780Z,54.10
2023-01-25T16:05:30.330Z,54.09
2023-01-25T16:08:31.944Z,54.36
2023-01-25T16:11:33.424Z,54.51
2023-01-25T16:14:34.920Z,54.55
2023-01-25T16:17:36.457Z,54.72
2023-01-25T16:20:37.957Z,54.79
2023-01-25T16:23:40.311Z,54.90
2023-01-25T16:26:48.129Z,55.03
2023-01-25T16:29:49.779Z,55.20
2023-01-25T16:32:52.760Z,55.40
2023-01-25T16:36:13.915Z,55.46
2023-01-25T16:39:19.987Z,55.64
2023-01-25T16:42:22.761Z,55.73
2023-01-25T16:45:25.387Z,55.97
2023-01-25T16:48:26.916Z,55.90
2023-01-25T16:51:28.865Z,55.96
2023-01-25T16:54:30.371Z,56.00
2023-01-25T16:57:31.857Z,55.92
2023-01-25T17:00:33.595Z,56.11
2023-01-25T17:03:35.037Z,56.04
2023-01-25T17:06:43.412Z,56.55
2023-01-25T17:09:44.971Z,56.34
2023-01-25T17:12:46.524Z,56.61
2023-01-25T17:15:48.201Z,56.90
2023-01-25T17:18:55.480Z,56.60
2023-01-25T17:21:59.028Z,56.65
2023-01-25T17:25:00.531Z,56.52
2023-01-25T17:28:02.032Z,56.43
2023-01-25T17:31:03.818Z,56.53
2023-01-25T17:34:07.956Z,56.65
2023-01-25T17:37:09.551Z,56.79
2023-01-25T17:40:12.025Z,56.91
2023-01-25T17:43:14.173Z,56.94
2023-01-25T17:46:22.480Z,57.06
2023-01-25T17:49:26.081Z,57.35
2023-01-25T17:52:27.560Z,57.67
2023-01-25T17:55:29.547Z,57.44
2023-01-25T17:58:34.154Z,57.67
2023-01-25T18:01:36.247Z,57.78
2023-01-25T18:04:37.843Z,57.74
2023-01-25T18:07:39.477Z,57.72
2023-01-25T18:10:41.246Z,57.80
2023-01-25T18:13:48.040Z,57.93
2023-01-25T18:16:50.411Z,57.94
2023-01-25T18:19:52.063Z,57.98
2023-01-25T18:22:54.023Z,58.03
2023-01-25T18:25:55.518Z,57.80
2023-01-25T18:29:34.422Z,57.93
2023-01-25T18:32:36.004Z,57.93
2023-01-25T18:35:37.487Z,57.57
2023-01-25T18:38:38.961Z,57.63
2023-01-25T18:41:40.411Z,57.97
2023-01-25T18:44:43.387Z,57.67
2023-01-25T18:47:44.960Z,57.97
2023-01-25T18:50:46.535Z,57.97
2023-01-25T18:53:48.042Z,58.26
2023-01-25T18:56:49.519Z,58.44
2023-01-25T18:59:51.964Z,58.43
2023-01-25T19:02:53.491Z,58.64
2023-01-25T19:05:55.022Z,58.79
2023-01-25T19:08:57.106Z,58.64
2023-01-25T19:11:58.874Z,58.58
2023-01-25T19:15:00.337Z,58.56
2023-01-25T19:18:01.817Z,58.65
2023-01-25T19:21:08.608Z,58.62
2023-01-25T19:24:15.553Z,58.63
2023-01-25T19:27:17.742Z,58.67
2023-01-25T19:30:19.288Z,58.44
2023-01-25T19:33:20.785Z,58.56
2023-01-25T19:36:22.849Z,58.37
2023-01-25T19:39:24.391Z,58.37
2023-01-25T19:42:25.852Z,58.26
2023-01-25T19:45:27.324Z,58.18
2023-01-25T19:48:32.204Z,58.28
2023-01-25T19:51:39.670Z,58.23
2023-01-25T19:54:41.166Z,58.48
2023-01-25T19:57:42.639Z,58.73
2023-01-25T20:00:44.141Z,58.25
2023-01-25T20:03:46.520Z,58.20
2023-01-25T20:06:50.067Z,58.21
2023-01-25T20:09:52.073Z,58.05
2023-01-25T20:12:53.538Z,58.00
2023-01-25T20:15:55.485Z,58.04
2023-01-25T20:18:57.151Z,57.97
2023-01-25T20:22:00.408Z,58.10
2023-01-25T20:25:02.033Z,58.37
2023-01-25T20:28:03.591Z,58.33
2023-01-25T20:31:05.421Z,58.60
2023-01-25T20:34:15.420Z,58.27
2023-01-25T20:37:17.010Z,58.03
2023-01-25T20:40:18.755Z,58.45
2023-01-25T20:43:22.390Z,58.29
2023-01-25T20:46:24.585Z,58.26
2023-01-25T20:49:26.074Z,58.33
2023-01-25T20:52:27.616Z,58.19
2023-01-25T20:55:29.086Z,58.55
2023-01-25T20:58:30.881Z,58.58
2023-01-25T21:01:38.941Z,58.21
2023-01-25T21:04:40.490Z,58.20
2023-01-25T21:07:42.122Z,58.38
2023-01-25T21:10:53.859Z,58.23
2023-01-25T21:13:55.529Z,58.12
2023-01-25T21:16:57.046Z,57.84
2023-01-25T21:19:58.634Z,58.17
2023-01-25T21:23:00.115Z,58.19
2023-01-25T21:26:02.900Z,58.31
2023-01-25T21:29:06.011Z,58.04
2023-01-25T21:32:07.528Z,57.76
2023-01-25T21:35:09.431Z,57.71
2023-01-25T21:38:11.026Z,57.64
2023-01-25T21:41:19.754Z,57.56
2023-01-25T21:44:39.837Z,57.46
2023-01-25T21:47:41.324Z,57.25
2023-01-25T21:51:18.227Z,57.27
2023-01-25T21:54:22.645Z,57.00
2023-01-25T21:57:24.121Z,57.02
2023-01-25T22:00:25.571Z,56.95
2023-01-25T22:03:27.025Z,56.59
2023-01-25T22:06:28.806Z,56.65
2023-01-25T22:09:32.829Z,56.60
2023-01-25T22:12:34.323Z,56.46
2023-01-25T22:15:35.782Z,56.45
2023-01-25T22:18:39.641Z,56.52
2023-01-25T22:21:41.098Z,56.61
2023-01-25T22:24:42.538Z,56.38
2023-01-25T22:27:55.429Z,56.56
2023-01-25T22:30:56.978Z,56.59
2023-01-25T22:33:59.432Z,56.67
2023-01-25T22:37:00.875Z,56.74
2023-01-25T22:40:02.335Z,56.38
2023-01-25T22:43:03.788Z,56.51
2023-01-25T22:46:06.601Z,56.45
2023-01-25T22:49:08.658Z,56.60
2023-01-25T22:52:10.122Z,56.56
2023-01-25T22:55:11.562Z,56.36
2023-01-25T22:58:13.023Z,56.42
2023-01-25T23:01:17.388Z,56.59
2023-01-25T23:04:18.867Z,56.60
2023-01-25T23:07:20.424Z,56.79
2023-01-25T23:10:22.832Z,56.50
2023-01-25T23:13:24.334Z,56.59
2023-01-25T23:16:25.777Z,56.66
2023-01-25T23:19:27.302Z,56.58
2023-01-25T23:22:28.820Z,56.51
2023-01-25T23:25:30.872Z,56.47
2023-01-25T23:28:32.419Z,56.43
2023-01-25T23:31:34.093Z,56.56
2023-01-25T23:34:37.002Z,56.42
2023-01-25T23:37:38.540Z,56.48
2023-01-25T23:40:40.017Z,56.54
2023-01-25T23:43:42.153Z,56.55
2023-01-25T23:46:43.680Z,56.69
2023-01-25T23:49:45.167Z,56.58
2023-01-25T23:52:46.605Z,56.63
2023-01-25T23:55:56.521Z,56.64
2023-01-25T23:58:59.081Z,56.73
